sensor_id;sensor_type;location;lat;lon;timestamp;pressure;altitude;pressure_sealevel;temperature;humidity
49945;BME280;35838;49.134;9.212;2022-11-20T00:00:51;99435.13;;;3.38;100.00
49945;BME280;35838;49.134;9.212;2022-11-20T00:02:23;99438.63;;;3.43;100.00
49945;BME280;35838;49.134;9.212;2022-11-20T00:03:57;99436.13;;;3.47;100.00
49945;BME280;35838;49.134;9.212;2022-11-20T00:05:34;99439.31;;;3.33;100.00
49945;BME280;35838;49.134;9.212;2022-11-20T00:07:09;99438.56;;;3.40;100.00
49945;BME280;35838;49.134;9.212;2022-11-20T00:08:44;99430.84;;;3.37;100.00
49945;BME280;35838;49.134;9.212;2022-11-20T00:10:15;99440.31;;;3.41;100.00
49945;BME280;35838;49.134;9.212;2022-11-20T00:11:49;99448.53;;;3.23;100.00
49945;BME280;35838;49.134;9.212;2022-11-20T00:13:23;99446.97;;;3.32;100.00
49945;BME280;35838;49.134;9.212;2022-11-20T00:14:57;99446.09;;;3.29;100.00
49945;BME280;35838;49.134;9.212;2022-11-20T00:16:32;99435.72;;;3.23;100.00
49945;BME280;35838;49.134;9.212;2022-11-20T00:18:06;99432.16;;;3.15;100.00
49945;BME280;35838;49.134;9.212;2022-11-20T00:19:38;99438.31;;;3.25;100.00
49945;BME280;35838;49.134;9.212;2022-11-20T00:21:16;99442.69;;;3.31;100.00
49945;BME280;35838;49.134;9.212;2022-11-20T00:22:50;99444.50;;;3.36;100.00
49945;BME280;35838;49.134;9.212;2022-11-20T00:24:24;99445.47;;;3.43;100.00
49945;BME280;35838;49.134;9.212;2022-11-20T00:26:01;99444.59;;;3.42;100.00
49945;BME280;35838;49.134;9.212;2022-11-20T00:27:35;99437.72;;;3.38;100.00
49945;BME280;35838;49.134;9.212;2022-11-20T00:29:10;99441.19;;;3.43;100.00
49945;BME280;35838;49.134;9.212;2022-11-20T00:30:44;99442.06;;;3.44;100.00
49945;BME280;35838;49.134;9.212;2022-11-20T00:32:19;99441.25;;;3.47;100.00
49945;BME280;35838;49.134;9.212;2022-11-20T00:33:53;99442.00;;;3.39;100.00
49945;BME280;35838;49.134;9.212;2022-11-20T00:35:24;99444.59;;;3.42;100.00
49945;BME280;35838;49.134;9.212;2022-11-20T00:37:01;99433.44;;;3.40;100.00
49945;BME280;35838;49.134;9.212;2022-11-20T00:38:35;99432.66;;;3.43;100.00
49945;BME280;35838;49.134;9.212;2022-11-20T00:40:10;99432.72;;;3.48;100.00
49945;BME280;35838;49.134;9.212;2022-11-20T00:41:44;99426.84;;;3.55;100.00
49945;BME280;35838;49.134;9.212;2022-11-20T00:43:19;99434.50;;;3.52;100.00
49945;BME280;35838;49.134;9.212;2022-11-20T00:44:51;99433.50;;;3.43;100.00
49945;BME280;35838;49.134;9.212;2022-11-20T00:46:27;99433.53;;;3.45;100.00
49945;BME280;35838;49.134;9.212;2022-11-20T00:48:01;99426.81;;;3.52;100.00
49945;BME280;35838;49.134;9.212;2022-11-20T00:49:35;99426.91;;;3.58;100.00
49945;BME280;35838;49.134;9.212;2022-11-20T00:51:11;99434.56;;;3.55;100.00
49945;BME280;35838;49.134;9.212;2022-11-20T00:52:48;99436.25;;;3.54;100.00
49945;BME280;35838;49.134;9.212;2022-11-20T00:54:19;99436.38;;;3.62;100.00
49945;BME280;35838;49.134;9.212;2022-11-20T00:55:54;99437.28;;;3.66;100.00
49945;BME280;35838;49.134;9.212;2022-11-20T00:57:26;99438.28;;;3.74;100.00
49945;BME280;35838;49.134;9.212;2022-11-20T00:59:00;99433.22;;;3.79;100.00
49945;BME280;35838;49.134;9.212;2022-11-20T01:00:34;99437.59;;;3.86;100.00
49945;BME280;35838;49.134;9.212;2022-11-20T01:02:06;99431.72;;;3.91;100.00
49945;BME280;35838;49.134;9.212;2022-11-20T01:03:41;99433.53;;;3.99;100.00
49945;BME280;35838;49.134;9.212;2022-11-20T01:05:15;99441.06;;;3.88;100.00
49945;BME280;35838;49.134;9.212;2022-11-20T01:06:49;99443.56;;;3.85;99.62
49945;BME280;35838;49.134;9.212;2022-11-20T01:08:29;99441.72;;;3.74;99.55
49945;BME280;35838;49.134;9.212;2022-11-20T01:10:04;99442.59;;;3.76;99.91
49945;BME280;35838;49.134;9.212;2022-11-20T01:11:40;99433.38;;;3.88;100.00
49945;BME280;35838;49.134;9.212;2022-11-20T01:13:14;99437.66;;;3.89;99.91
49945;BME280;35838;49.134;9.212;2022-11-20T01:15:00;99441.00;;;3.82;99.82
49945;BME280;35838;49.134;9.212;2022-11-20T01:16:42;99439.78;;;3.61;99.95
49945;BME280;35838;49.134;9.212;2022-11-20T01:18:18;99437.22;;;3.61;100.00
49945;BME280;35838;49.134;9.212;2022-11-20T01:19:49;99438.19;;;3.68;100.00
49945;BME280;35838;49.134;9.212;2022-11-20T01:21:26;99448.59;;;3.77;100.00
49945;BME280;35838;49.134;9.212;2022-11-20T01:23:07;99432.44;;;3.83;99.98
49945;BME280;35838;49.134;9.212;2022-11-20T01:24:41;99437.53;;;3.81;99.56
49945;BME280;35838;49.134;9.212;2022-11-20T01:26:16;99437.53;;;3.80;99.77
49945;BME280;35838;49.134;9.212;2022-11-20T01:27:51;99446.22;;;3.89;99.59
49945;BME280;35838;49.134;9.212;2022-11-20T01:29:25;99436.78;;;3.88;99.95
49945;BME280;35838;49.134;9.212;2022-11-20T01:31:00;99441.22;;;3.97;99.55
49945;BME280;35838;49.134;9.212;2022-11-20T01:32:31;99439.50;;;3.98;99.15
49945;BME280;35838;49.134;9.212;2022-11-20T01:34:09;99437.88;;;4.03;99.01
49945;BME280;35838;49.134;9.212;2022-11-20T01:35:43;99435.34;;;4.06;98.51
49945;BME280;35838;49.134;9.212;2022-11-20T01:37:15;99436.16;;;4.02;98.60
49945;BME280;35838;49.134;9.212;2022-11-20T01:38:51;99437.00;;;4.02;98.92
49945;BME280;35838;49.134;9.212;2022-11-20T01:40:28;99431.09;;;4.06;99.15
49945;BME280;35838;49.134;9.212;2022-11-20T01:42:02;99429.44;;;4.12;99.16
49945;BME280;35838;49.134;9.212;2022-11-20T01:43:48;99420.88;;;4.10;98.99
49945;BME280;35838;49.134;9.212;2022-11-20T01:47:30;99415.81;;;4.17;98.50
49945;BME280;35838;49.134;9.212;2022-11-20T01:49:11;99414.06;;;4.13;98.67
49945;BME280;35838;49.134;9.212;2022-11-20T01:50:50;99414.13;;;4.18;99.13
49945;BME280;35838;49.134;9.212;2022-11-20T01:52:24;99409.91;;;4.24;98.80
49945;BME280;35838;49.134;9.212;2022-11-20T01:54:05;99409.78;;;4.15;98.53
49945;BME280;35838;49.134;9.212;2022-11-20T01:55:45;99409.13;;;4.27;98.30
49945;BME280;35838;49.134;9.212;2022-11-20T01:57:23;99410.88;;;4.31;98.01
49945;BME280;35838;49.134;9.212;2022-11-20T01:59:01;99408.25;;;4.28;97.92
49945;BME280;35838;49.134;9.212;2022-11-20T02:00:37;99404.91;;;4.32;98.02
49945;BME280;35838;49.134;9.212;2022-11-20T02:02:09;99408.25;;;4.28;98.25
49945;BME280;35838;49.134;9.212;2022-11-20T02:03:43;99418.53;;;4.28;98.78
49945;BME280;35838;49.134;9.212;2022-11-20T02:05:23;99410.47;;;4.03;99.42
49945;BME280;35838;49.134;9.212;2022-11-20T02:07:00;99415.63;;;4.03;100.00
49945;BME280;35838;49.134;9.212;2022-11-20T02:08:33;99416.66;;;4.16;100.00
49945;BME280;35838;49.134;9.212;2022-11-20T02:10:07;99416.78;;;4.26;100.00
49945;BME280;35838;49.134;9.212;2022-11-20T02:11:44;99413.44;;;4.30;99.89
49945;BME280;35838;49.134;9.212;2022-11-20T02:13:18;99409.13;;;4.30;100.00
49945;BME280;35838;49.134;9.212;2022-11-20T02:15:05;99411.72;;;4.30;99.98
49945;BME280;35838;49.134;9.212;2022-11-20T02:16:40;99410.03;;;4.31;100.00
49945;BME280;35838;49.134;9.212;2022-11-20T02:18:19;99409.91;;;4.21;100.00
49945;BME280;35838;49.134;9.212;2022-11-20T02:19:51;99409.97;;;4.28;100.00
49945;BME280;35838;49.134;9.212;2022-11-20T02:21:30;99411.75;;;4.32;100.00
49945;BME280;35838;49.134;9.212;2022-11-20T02:23:12;99416.09;;;4.37;100.00
49945;BME280;35838;49.134;9.212;2022-11-20T02:24:51;99416.19;;;4.44;100.00
49945;BME280;35838;49.134;9.212;2022-11-20T02:26:26;99420.44;;;4.43;100.00
49945;BME280;35838;49.134;9.212;2022-11-20T02:27:59;99404.19;;;4.43;100.00
49945;BME280;35838;49.134;9.212;2022-11-20T02:29:37;99410.16;;;4.42;100.00
49945;BME280;35838;49.134;9.212;2022-11-20T02:31:12;99414.19;;;4.22;100.00
49945;BME280;35838;49.134;9.212;2022-11-20T02:32:44;99409.00;;;4.21;100.00
49945;BME280;35838;49.134;9.212;2022-11-20T02:34:18;99409.91;;;4.23;100.00
49945;BME280;35838;49.134;9.212;2022-11-20T02:35:52;99407.34;;;4.23;100.00
49945;BME280;35838;49.134;9.212;2022-11-20T02:37:30;99409.97;;;4.26;100.00
49945;BME280;35838;49.134;9.212;2022-11-20T02:39:06;99410.81;;;4.28;100.00
49945;BME280;35838;49.134;9.212;2022-11-20T02:40:43;99410.94;;;4.37;100.00
49945;BME280;35838;49.134;9.212;2022-11-20T02:42:14;99406.69;;;4.41;100.00
49945;BME280;35838;49.134;9.212;2022-11-20T02:43:48;99406.75;;;4.43;100.00
49945;BME280;35838;49.134;9.212;2022-11-20T02:45:23;99405.94;;;4.47;100.00
49945;BME280;35838;49.134;9.212;2022-11-20T02:46:56;99396.47;;;4.43;100.00
49945;BME280;35838;49.134;9.212;2022-11-20T02:48:30;99398.19;;;4.44;100.00
49945;BME280;35838;49.134;9.212;2022-11-20T02:50:02;99401.63;;;4.46;100.00
49945;BME280;35838;49.134;9.212;2022-11-20T02:51:36;99397.38;;;4.48;100.00
49945;BME280;35838;49.134;9.212;2022-11-20T02:53:10;99394.84;;;4.51;100.00
49945;BME280;35838;49.134;9.212;2022-11-20T02:54:42;99395.66;;;4.47;100.00
49945;BME280;35838;49.134;9.212;2022-11-20T02:56:19;99396.53;;;4.50;100.00
49945;BME280;35838;49.134;9.212;2022-11-20T02:57:53;99395.56;;;4.41;100.00
49945;BME280;35838;49.134;9.212;2022-11-20T02:59:27;99381.13;;;4.50;100.00
49945;BME280;35838;49.134;9.212;2022-11-20T03:01:01;99385.41;;;4.50;100.00
49945;BME280;35838;49.134;9.212;2022-11-20T03:02:33;99385.47;;;4.53;100.00
49945;BME280;35838;49.134;9.212;2022-11-20T03:04:07;99382.06;;;4.57;100.00
49945;BME280;35838;49.134;9.212;2022-11-20T03:05:41;99386.22;;;4.46;100.00
49945;BME280;35838;49.134;9.212;2022-11-20T03:07:13;99380.22;;;4.47;100.00
49945;BME280;35838;49.134;9.212;2022-11-20T03:08:47;99390.59;;;4.53;100.00
49945;BME280;35838;49.134;9.212;2022-11-20T03:10:21;99382.84;;;4.48;100.00
49945;BME280;35838;49.134;9.212;2022-11-20T03:11:55;99378.59;;;4.55;100.00
49945;BME280;35838;49.134;9.212;2022-11-20T03:13:29;99380.28;;;4.51;100.00
49945;BME280;35838;49.134;9.212;2022-11-20T03:15:00;99384.63;;;4.57;100.00
49945;BME280;35838;49.134;9.212;2022-11-20T03:16:34;99376.06;;;4.57;100.00
49945;BME280;35838;49.134;9.212;2022-11-20T03:18:09;99374.41;;;4.60;100.00
49945;BME280;35838;49.134;9.212;2022-11-20T03:19:44;99379.56;;;4.63;100.00
49945;BME280;35838;49.134;9.212;2022-11-20T03:21:18;99372.72;;;4.64;100.00
49945;BME280;35838;49.134;9.212;2022-11-20T03:22:50;99371.84;;;4.60;100.00
49945;BME280;35838;49.134;9.212;2022-11-20T03:24:24;99370.03;;;4.53;100.00
49945;BME280;35838;49.134;9.212;2022-11-20T03:26:12;99372.72;;;4.62;100.00
49945;BME280;35838;49.134;9.212;2022-11-20T03:27:49;99376.16;;;4.64;100.00
49945;BME280;35838;49.134;9.212;2022-11-20T03:29:23;99371.94;;;4.71;100.00
49945;BME280;35838;49.134;9.212;2022-11-20T03:30:57;99371.16;;;4.75;100.00
49945;BME280;35838;49.134;9.212;2022-11-20T03:32:31;99371.19;;;4.80;100.00
49945;BME280;35838;49.134;9.212;2022-11-20T03:34:05;99366.91;;;4.79;100.00
49945;BME280;35838;49.134;9.212;2022-11-20T03:35:39;99362.66;;;4.82;100.00
49945;BME280;35838;49.134;9.212;2022-11-20T03:37:13;99370.41;;;4.87;100.00
49945;BME280;35838;49.134;9.212;2022-11-20T03:38:48;99368.75;;;4.92;100.00
49945;BME280;35838;49.134;9.212;2022-11-20T03:40:22;99362.72;;;4.89;100.00
49945;BME280;35838;49.134;9.212;2022-11-20T03:41:56;99363.69;;;5.00;100.00
49945;BME280;35838;49.134;9.212;2022-11-20T03:43:33;99360.28;;;5.04;100.00
49945;BME280;35838;49.134;9.212;2022-11-20T03:45:08;99362.03;;;5.07;100.00
49945;BME280;35838;49.134;9.212;2022-11-20T03:46:40;99356.06;;;5.12;100.00
49945;BME280;35838;49.134;9.212;2022-11-20T03:48:14;99360.50;;;5.27;100.00
49945;BME280;35838;49.134;9.212;2022-11-20T03:49:48;99359.69;;;5.34;100.00
49945;BME280;35838;49.134;9.212;2022-11-20T03:51:23;99362.38;;;5.47;100.00
49945;BME280;35838;49.134;9.212;2022-11-20T03:52:58;99354.72;;;5.58;100.00
49945;BME280;35838;49.134;9.212;2022-11-20T03:54:29;99357.28;;;5.50;100.00
49945;BME280;35838;49.134;9.212;2022-11-20T03:56:05;99353.84;;;5.53;100.00
49945;BME280;35838;49.134;9.212;2022-11-20T03:57:37;99350.44;;;5.57;100.00
49945;BME280;35838;49.134;9.212;2022-11-20T03:59:13;99358.19;;;5.58;100.00
49945;BME280;35838;49.134;9.212;2022-11-20T04:00:47;99354.81;;;5.65;100.00
49945;BME280;35838;49.134;9.212;2022-11-20T04:02:22;99359.16;;;5.76;100.00
49945;BME280;35838;49.134;9.212;2022-11-20T04:03:55;99355.75;;;5.78;100.00
49945;BME280;35838;49.134;9.212;2022-11-20T04:05:29;99350.44;;;5.55;100.00
49945;BME280;35838;49.134;9.212;2022-11-20T04:07:01;99354.66;;;5.48;100.00
49945;BME280;35838;49.134;9.212;2022-11-20T04:08:35;99359.06;;;5.63;100.00
49945;BME280;35838;49.134;9.212;2022-11-20T04:10:08;99350.53;;;5.68;100.00
49945;BME280;35838;49.134;9.212;2022-11-20T04:11:42;99347.97;;;5.71;100.00
49945;BME280;35838;49.134;9.212;2022-11-20T04:13:16;99351.44;;;5.79;100.00
49945;BME280;35838;49.134;9.212;2022-11-20T04:14:53;99355.81;;;5.88;100.00
49945;BME280;35838;49.134;9.212;2022-11-20T04:16:30;99355.72;;;5.75;100.00
49945;BME280;35838;49.134;9.212;2022-11-20T04:18:04;99351.41;;;5.71;100.00
49945;BME280;35838;49.134;9.212;2022-11-20T04:19:36;99348.88;;;5.76;100.00
49945;BME280;35838;49.134;9.212;2022-11-20T04:21:10;99350.56;;;5.74;100.00
49945;BME280;35838;49.134;9.212;2022-11-20T04:22:42;99346.28;;;5.77;100.00
49945;BME280;35838;49.134;9.212;2022-11-20T04:24:16;99347.06;;;5.69;100.00
49945;BME280;35838;49.134;9.212;2022-11-20T04:25:50;99343.72;;;5.79;100.00
49945;BME280;35838;49.134;9.212;2022-11-20T04:27:22;99348.03;;;5.85;100.00
49945;BME280;35838;49.134;9.212;2022-11-20T04:28:56;99342.94;;;5.91;100.00
49945;BME280;35838;49.134;9.212;2022-11-20T04:30:31;99338.66;;;5.91;100.00
49945;BME280;35838;49.134;9.212;2022-11-20T04:32:05;99342.09;;;5.96;100.00
49945;BME280;35838;49.134;9.212;2022-11-20T16:32:40;99203.06;;;7.58;71.13
49945;BME280;35838;49.134;9.212;2022-11-20T16:34:16;99197.91;;;7.58;71.43
49945;BME280;35838;49.134;9.212;2022-11-20T16:35:50;99203.06;;;7.58;71.22
49945;BME280;35838;49.134;9.212;2022-11-20T16:37:24;99198.78;;;7.52;71.50
49945;BME280;35838;49.134;9.212;2022-11-20T16:38:59;99197.06;;;7.52;71.51
49945;BME280;35838;49.134;9.212;2022-11-20T16:40:34;99196.16;;;7.61;71.36
49945;BME280;35838;49.134;9.212;2022-11-20T16:42:08;99197.91;;;7.61;71.03
49945;BME280;35838;49.134;9.212;2022-11-20T16:43:44;99196.16;;;7.66;70.85
49945;BME280;35838;49.134;9.212;2022-11-20T16:45:19;99196.16;;;7.69;70.59
49945;BME280;35838;49.134;9.212;2022-11-20T16:46:54;99191.84;;;7.69;70.16
49945;BME280;35838;49.134;9.212;2022-11-20T16:48:31;99190.13;;;7.72;70.07
49945;BME280;35838;49.134;9.212;2022-11-20T16:50:06;99188.41;;;7.71;69.84
49945;BME280;35838;49.134;9.212;2022-11-20T16:51:40;99194.44;;;7.66;69.65
49945;BME280;35838;49.134;9.212;2022-11-20T16:53:14;99193.56;;;7.67;70.00
49945;BME280;35838;49.134;9.212;2022-11-20T16:54:48;99195.25;;;7.73;69.92
49945;BME280;35838;49.134;9.212;2022-11-20T16:56:24;99192.69;;;7.73;69.97
49945;BME280;35838;49.134;9.212;2022-11-20T16:57:58;99189.19;;;7.80;69.35
49945;BME280;35838;49.134;9.212;2022-11-20T16:59:32;99190.09;;;7.79;69.55
49945;BME280;35838;49.134;9.212;2022-11-20T17:01:06;99193.50;;;7.81;69.20
49945;BME280;35838;49.134;9.212;2022-11-20T17:02:40;99194.38;;;7.76;68.76
49945;BME280;35838;49.134;9.212;2022-11-20T17:04:17;99186.66;;;7.77;69.13
49945;BME280;35838;49.134;9.212;2022-11-20T17:05:51;99190.97;;;7.78;69.17
49945;BME280;35838;49.134;9.212;2022-11-20T17:07:25;99179.75;;;7.84;69.09
49945;BME280;35838;49.134;9.212;2022-11-20T17:08:59;99177.19;;;7.76;68.89
49945;BME280;35838;49.134;9.212;2022-11-20T17:10:33;99183.19;;;7.83;69.17
49945;BME280;35838;49.134;9.212;2022-11-20T17:12:07;99175.47;;;7.78;68.64
49945;BME280;35838;49.134;9.212;2022-11-20T17:13:42;99172.84;;;7.83;69.00
49945;BME280;35838;49.134;9.212;2022-11-20T17:15:16;99176.28;;;7.82;69.20
49945;BME280;35838;49.134;9.212;2022-11-20T17:16:50;99173.69;;;7.80;69.43
49945;BME280;35838;49.134;9.212;2022-11-20T17:18:26;99177.16;;;7.82;69.31
49945;BME280;35838;49.134;9.212;2022-11-20T17:20:04;99172.84;;;7.84;69.29
49945;BME280;35838;49.134;9.212;2022-11-20T17:21:38;99175.47;;;7.78;69.65
49945;BME280;35838;49.134;9.212;2022-11-20T17:23:12;99179.78;;;7.72;70.07
49945;BME280;35838;49.134;9.212;2022-11-20T17:24:46;99182.34;;;7.73;70.27
49945;BME280;35838;49.134;9.212;2022-11-20T17:26:22;99180.63;;;7.75;70.56
49945;BME280;35838;49.134;9.212;2022-11-20T17:27:58;99183.22;;;7.75;70.92
49945;BME280;35838;49.134;9.212;2022-11-20T17:29:32;99178.91;;;7.74;71.22
49945;BME280;35838;49.134;9.212;2022-11-20T17:31:08;99175.47;;;7.72;71.42
49945;BME280;35838;49.134;9.212;2022-11-20T17:32:42;99168.59;;;7.71;71.13
49945;BME280;35838;49.134;9.212;2022-11-20T17:34:17;99170.28;;;7.72;71.47
49945;BME280;35838;49.134;9.212;2022-11-20T17:35:55;99173.78;;;7.71;71.72
49945;BME280;35838;49.134;9.212;2022-11-20T17:37:29;99172.09;;;7.55;72.26
49945;BME280;35838;49.134;9.212;2022-11-20T17:39:03;99167.75;;;7.58;72.44
49945;BME280;35838;49.134;9.212;2022-11-20T17:40:37;99166.91;;;7.58;72.55
49945;BME280;35838;49.134;9.212;2022-11-20T17:42:11;99167.78;;;7.57;73.16
49945;BME280;35838;49.134;9.212;2022-11-20T17:44:00;99159.16;;;7.58;73.21
49945;BME280;35838;49.134;9.212;2022-11-20T17:45:35;99160.03;;;7.60;73.46
49945;BME280;35838;49.134;9.212;2022-11-20T17:47:10;99156.56;;;7.64;73.38
49945;BME280;35838;49.134;9.212;2022-11-20T17:48:45;99157.41;;;7.63;73.62
49945;BME280;35838;49.134;9.212;2022-11-20T17:50:19;99154.00;;;7.65;73.33
49945;BME280;35838;49.134;9.212;2022-11-20T17:51:55;99152.25;;;7.66;73.23
49945;BME280;35838;49.134;9.212;2022-11-20T17:53:33;99150.56;;;7.62;73.72
49945;BME280;35838;49.134;9.212;2022-11-20T17:55:08;99157.38;;;7.75;73.02
49945;BME280;35838;49.134;9.212;2022-11-20T17:56:42;99156.56;;;7.67;73.28
49945;BME280;35838;49.134;9.212;2022-11-20T17:58:28;99154.84;;;7.63;73.54
49945;BME280;35838;49.134;9.212;2022-11-20T18:00:00;99138.50;;;7.61;74.19
49945;BME280;35838;49.134;9.212;2022-11-20T18:01:34;99131.59;;;7.58;74.49
49945;BME280;35838;49.134;9.212;2022-11-20T18:03:09;99135.06;;;7.56;74.49
49945;BME280;35838;49.134;9.212;2022-11-20T18:04:43;99127.31;;;7.56;74.80
49945;BME280;35838;49.134;9.212;2022-11-20T18:06:19;99124.75;;;7.59;74.68
49945;BME280;35838;49.134;9.212;2022-11-20T18:07:56;99125.63;;;7.51;74.79
49945;BME280;35838;49.134;9.212;2022-11-20T18:09:30;99123.03;;;7.56;75.13
49945;BME280;35838;49.134;9.212;2022-11-20T18:11:11;99134.28;;;7.38;75.50
49945;BME280;35838;49.134;9.212;2022-11-20T18:12:44;99129.97;;;7.45;75.75
49945;BME280;35838;49.134;9.212;2022-11-20T18:14:18;99135.09;;;7.46;75.12
49945;BME280;35838;49.134;9.212;2022-11-20T18:16:05;99130.84;;;7.34;75.63
49945;BME280;35838;49.134;9.212;2022-11-20T18:17:39;99140.34;;;7.23;75.93
49945;BME280;35838;49.134;9.212;2022-11-20T18:19:16;99134.34;;;7.26;76.68
49945;BME280;35838;49.134;9.212;2022-11-20T18:20:52;99134.31;;;7.24;76.11
49945;BME280;35838;49.134;9.212;2022-11-20T18:22:26;99138.63;;;7.24;75.46
49945;BME280;35838;49.134;9.212;2022-11-20T18:24:03;99139.50;;;7.21;75.80
49945;BME280;35838;49.134;9.212;2022-11-20T18:25:37;99134.34;;;7.05;77.62
49945;BME280;35838;49.134;9.212;2022-11-20T18:27:15;99125.78;;;6.99;78.75
49945;BME280;35838;49.134;9.212;2022-11-20T18:28:50;99122.31;;;7.03;78.58
49945;BME280;35838;49.134;9.212;2022-11-20T18:30:24;99117.22;;;6.78;79.20
49945;BME280;35838;49.134;9.212;2022-11-20T18:31:58;99115.53;;;6.74;79.67
49945;BME280;35838;49.134;9.212;2022-11-20T18:33:32;99111.19;;;6.88;79.83
49945;BME280;35838;49.134;9.212;2022-11-20T18:35:07;99101.72;;;6.97;79.84
49945;BME280;35838;49.134;9.212;2022-11-20T18:36:43;99108.56;;;7.01;79.38
49945;BME280;35838;49.134;9.212;2022-11-20T18:38:17;99106.88;;;6.84;78.74
49945;BME280;35838;49.134;9.212;2022-11-20T18:39:54;99112.03;;;7.00;79.36
49945;BME280;35838;49.134;9.212;2022-11-20T18:41:29;99101.69;;;7.06;79.46
49945;BME280;35838;49.134;9.212;2022-11-20T18:43:16;99106.88;;;6.90;79.25
49945;BME280;35838;49.134;9.212;2022-11-20T18:45:03;99106.84;;;7.06;79.33
49945;BME280;35838;49.134;9.212;2022-11-20T18:46:37;99100.81;;;7.13;79.40
49945;BME280;35838;49.134;9.212;2022-11-20T18:48:12;99099.94;;;7.16;79.26
49945;BME280;35838;49.134;9.212;2022-11-20T18:49:48;99098.19;;;7.19;79.36
49945;BME280;35838;49.134;9.212;2022-11-20T18:51:23;99093.03;;;7.26;79.14
49945;BME280;35838;49.134;9.212;2022-11-20T18:52:57;99102.47;;;7.28;78.81
49945;BME280;35838;49.134;9.212;2022-11-20T18:54:34;99089.56;;;7.33;78.79
49945;BME280;35838;49.134;9.212;2022-11-20T18:56:10;99091.25;;;7.39;78.21
49945;BME280;35838;49.134;9.212;2022-11-20T18:57:44;99089.50;;;7.41;78.43
49945;BME280;35838;49.134;9.212;2022-11-20T18:59:19;99093.84;;;7.35;79.27
49945;BME280;35838;49.134;9.212;2022-11-20T19:00:51;99091.31;;;7.25;79.97
49945;BME280;35838;49.134;9.212;2022-11-20T19:02:25;99093.84;;;7.28;80.47
49945;BME280;35838;49.134;9.212;2022-11-20T19:04:05;99101.63;;;7.18;81.18
49945;BME280;35838;49.134;9.212;2022-11-20T19:05:39;99096.50;;;7.08;80.25
49945;BME280;35838;49.134;9.212;2022-11-20T19:07:13;99103.44;;;6.88;80.86
49945;BME280;35838;49.134;9.212;2022-11-20T19:08:48;99098.25;;;6.99;80.94
49945;BME280;35838;49.134;9.212;2022-11-20T19:10:22;99097.44;;;6.89;81.26
49945;BME280;35838;49.134;9.212;2022-11-20T19:11:59;99101.75;;;6.64;81.74
49945;BME280;35838;49.134;9.212;2022-11-20T19:13:34;99094.03;;;6.58;82.68
49945;BME280;35838;49.134;9.212;2022-11-20T19:15:08;99100.91;;;6.50;82.92
49945;BME280;35838;49.134;9.212;2022-11-20T19:16:43;99094.91;;;6.32;82.33
49945;BME280;35838;49.134;9.212;2022-11-20T19:18:14;99099.19;;;6.11;83.10
49945;BME280;35838;49.134;9.212;2022-11-20T19:19:48;99101.75;;;6.13;84.36
49945;BME280;35838;49.134;9.212;2022-11-20T19:21:25;99087.16;;;6.10;84.21
49945;BME280;35838;49.134;9.212;2022-11-20T19:22:59;99094.00;;;6.18;82.96
49945;BME280;35838;49.134;9.212;2022-11-20T19:24:33;99079.44;;;6.03;81.31
49945;BME280;35838;49.134;9.212;2022-11-20T19:26:07;99082.84;;;6.02;82.97
49945;BME280;35838;49.134;9.212;2022-11-20T19:27:44;99085.44;;;6.03;83.37
49945;BME280;35838;49.134;9.212;2022-11-20T19:29:18;99078.50;;;5.93;83.32
49945;BME280;35838;49.134;9.212;2022-11-20T19:30:52;99081.09;;;5.97;83.99
49945;BME280;35838;49.134;9.212;2022-11-20T19:32:26;99076.84;;;6.04;84.81
49945;BME280;35838;49.134;9.212;2022-11-20T19:34:01;99081.13;;;6.02;84.41
49945;BME280;35838;49.134;9.212;2022-11-20T19:35:36;99071.69;;;6.00;84.91
49945;BME280;35838;49.134;9.212;2022-11-20T19:37:10;99070.81;;;6.13;85.15
49945;BME280;35838;49.134;9.212;2022-11-20T19:38:45;99072.56;;;6.23;84.35
49945;BME280;35838;49.134;9.212;2022-11-20T19:40:20;99072.56;;;6.30;83.53
49945;BME280;35838;49.134;9.212;2022-11-20T19:41:54;99075.97;;;6.32;83.86
49945;BME280;35838;49.134;9.212;2022-11-20T19:43:30;99069.13;;;6.38;83.68
49945;BME280;35838;49.134;9.212;2022-11-20T19:45:06;99071.69;;;6.40;83.56
49945;BME280;35838;49.134;9.212;2022-11-20T19:46:40;99065.69;;;6.35;83.16
49945;BME280;35838;49.134;9.212;2022-11-20T19:48:14;99069.97;;;6.42;83.24
49945;BME280;35838;49.134;9.212;2022-11-20T19:49:49;99067.41;;;6.37;82.59
49945;BME280;35838;49.134;9.212;2022-11-20T19:51:24;99065.69;;;6.16;83.28
49945;BME280;35838;49.134;9.212;2022-11-20T19:52:59;99066.53;;;6.20;82.92
49945;BME280;35838;49.134;9.212;2022-11-20T19:54:33;99063.09;;;6.11;82.08
49945;BME280;35838;49.134;9.212;2022-11-20T19:56:07;99059.69;;;6.06;82.30
49945;BME280;35838;49.134;9.212;2022-11-20T19:57:41;99060.53;;;6.16;83.19
49945;BME280;35838;49.134;9.212;2022-11-20T19:59:18;99061.38;;;6.15;82.87
49945;BME280;35838;49.134;9.212;2022-11-20T20:00:52;99057.97;;;6.25;83.06
49945;BME280;35838;49.134;9.212;2022-11-20T20:02:26;99052.81;;;6.33;82.38
49945;BME280;35838;49.134;9.212;2022-11-20T20:04:00;99048.50;;;6.32;81.88
49945;BME280;35838;49.134;9.212;2022-11-20T20:05:35;99051.09;;;6.37;82.36
49945;BME280;35838;49.134;9.212;2022-11-20T20:07:09;99049.34;;;6.42;82.15
49945;BME280;35838;49.134;9.212;2022-11-20T20:08:43;99045.06;;;6.42;82.06
49945;BME280;35838;49.134;9.212;2022-11-20T20:10:17;99048.50;;;6.43;81.95
49945;BME280;35838;49.134;9.212;2022-11-20T20:11:52;99044.22;;;6.30;82.30
49945;BME280;35838;49.134;9.212;2022-11-20T20:13:26;99050.22;;;6.41;82.59
49945;BME280;35838;49.134;9.212;2022-11-20T20:15:03;99045.91;;;6.26;82.87
49945;BME280;35838;49.134;9.212;2022-11-20T20:16:37;99041.63;;;6.22;83.41
49945;BME280;35838;49.134;9.212;2022-11-20T20:18:11;99052.81;;;6.10;83.75
49945;BME280;35838;49.134;9.212;2022-11-20T20:19:45;99057.09;;;6.23;83.98
49945;BME280;35838;49.134;9.212;2022-11-20T20:21:19;99053.66;;;6.34;84.19
49945;BME280;35838;49.134;9.212;2022-11-20T20:22:53;99042.47;;;6.41;83.95
49945;BME280;35838;49.134;9.212;2022-11-20T20:24:27;99047.63;;;6.46;83.89
49945;BME280;35838;49.134;9.212;2022-11-20T20:26:02;99055.38;;;6.53;83.42
49945;BME280;35838;49.134;9.212;2022-11-20T20:27:37;99049.34;;;6.48;83.34
49945;BME280;35838;49.134;9.212;2022-11-20T20:29:11;99052.78;;;6.55;83.63